Weather at Jerusalem International Airport [CLOSED]

Public forecast

Using degrees Celsius for public forecast. Weather courtesy of forecast.io.

Closest aviation weather report (METAR) to Jerusalem International Airport

Closest report is Ben Gurion International Airport, 19.0 nm (35.2 km) WNW. Retrieved 2021/10/26 04:20 UTC (0 seconds ago):

LLBG 260420Z VRB02KT 9999 FEW030 19/15 Q1015 NOSIG

Closest aviation forecast (TAF) to Jerusalem International Airport

Closest forecast is Ben Gurion International Airport, 19.0 nm (35.2 km) WNW. Retrieved 2021-10-26 00:48 UTC (3 hours ago):

TAF TAF LLBG 252303Z 2600/2624 VRB03KT 9999 FEW030 PROB40 TEMPO 2600/2607 13005KT BKN030 BECMG 2607/2609 32010KT FEW040 BECMG 2616/2618 VRB04KT FEW035 TX27/2609Z TN17/2603Z